sensor_id;sensor_type;location;lat;lon;timestamp;temperature;humidity
30999;DHT22;20549;50.042;8.968;2022-12-29T00:00:55;14.80;77.10
30999;DHT22;20549;50.042;8.968;2022-12-29T00:03:22;14.80;76.90
30999;DHT22;20549;50.042;8.968;2022-12-29T00:05:53;14.80;76.90
30999;DHT22;20549;50.042;8.968;2022-12-29T00:08:15;14.90;77.10
30999;DHT22;20549;50.042;8.968;2022-12-29T00:10:41;14.80;77.10
30999;DHT22;20549;50.042;8.968;2022-12-29T00:13:08;14.90;77.00
30999;DHT22;20549;50.042;8.968;2022-12-29T00:15:53;14.90;77.10
30999;DHT22;20549;50.042;8.968;2022-12-29T00:18:19;14.90;77.10
30999;DHT22;20549;50.042;8.968;2022-12-29T00:20:46;14.90;76.80
30999;DHT22;20549;50.042;8.968;2022-12-29T00:23:31;14.90;77.70
30999;DHT22;20549;50.042;8.968;2022-12-29T00:26:15;14.90;76.80
30999;DHT22;20549;50.042;8.968;2022-12-29T00:29:00;14.90;76.50
30999;DHT22;20549;50.042;8.968;2022-12-29T00:31:44;14.90;76.80
30999;DHT22;20549;50.042;8.968;2022-12-29T00:34:29;14.90;76.70
30999;DHT22;20549;50.042;8.968;2022-12-29T00:37:13;14.90;76.80
30999;DHT22;20549;50.042;8.968;2022-12-29T00:39:40;14.90;76.80
30999;DHT22;20549;50.042;8.968;2022-12-29T00:42:25;14.90;76.60
30999;DHT22;20549;50.042;8.968;2022-12-29T00:45:10;14.90;77.00
30999;DHT22;20549;50.042;8.968;2022-12-29T00:47:36;15.00;77.50
30999;DHT22;20549;50.042;8.968;2022-12-29T00:50:03;14.90;77.80
30999;DHT22;20549;50.042;8.968;2022-12-29T00:52:29;15.00;78.20
30999;DHT22;20549;50.042;8.968;2022-12-29T00:54:56;14.90;78.20
30999;DHT22;20549;50.042;8.968;2022-12-29T00:57:22;14.90;78.40
30999;DHT22;20549;50.042;8.968;2022-12-29T00:59:49;14.80;78.80
30999;DHT22;20549;50.042;8.968;2022-12-29T01:02:16;14.80;79.40
30999;DHT22;20549;50.042;8.968;2022-12-29T01:04:42;14.70;79.90
30999;DHT22;20549;50.042;8.968;2022-12-29T01:07:09;14.60;80.20
30999;DHT22;20549;50.042;8.968;2022-12-29T01:09:35;14.50;81.00
30999;DHT22;20549;50.042;8.968;2022-12-29T01:12:20;14.40;81.20
30999;DHT22;20549;50.042;8.968;2022-12-29T01:14:47;14.20;82.10
30999;DHT22;20549;50.042;8.968;2022-12-29T01:17:13;14.10;82.50
30999;DHT22;20549;50.042;8.968;2022-12-29T01:19:40;14.00;83.60
30999;DHT22;20549;50.042;8.968;2022-12-29T01:22:06;13.90;84.20
30999;DHT22;20549;50.042;8.968;2022-12-29T01:24:33;13.80;85.00
30999;DHT22;20549;50.042;8.968;2022-12-29T01:27:00;13.60;85.80
30999;DHT22;20549;50.042;8.968;2022-12-29T01:29:26;13.50;86.70
30999;DHT22;20549;50.042;8.968;2022-12-29T01:31:53;13.40;87.80
30999;DHT22;20549;50.042;8.968;2022-12-29T01:34:19;13.40;88.40
30999;DHT22;20549;50.042;8.968;2022-12-29T01:36:46;13.30;89.10
30999;DHT22;20549;50.042;8.968;2022-12-29T01:39:13;13.20;89.80
30999;DHT22;20549;50.042;8.968;2022-12-29T01:41:39;13.20;90.40
30999;DHT22;20549;50.042;8.968;2022-12-29T01:47:10;13.10;90.90
30999;DHT22;20549;50.042;8.968;2022-12-29T01:49:36;13.10;91.10
30999;DHT22;20549;50.042;8.968;2022-12-29T01:52:04;13.00;91.40
30999;DHT22;20549;50.042;8.968;2022-12-29T01:57:03;13.00;91.70
30999;DHT22;20549;50.042;8.968;2022-12-29T01:59:32;13.00;92.00
30999;DHT22;20549;50.042;8.968;2022-12-29T02:01:55;13.00;92.00
30999;DHT22;20549;50.042;8.968;2022-12-29T02:04:22;13.00;92.10
30999;DHT22;20549;50.042;8.968;2022-12-29T02:06:51;13.00;92.30
30999;DHT22;20549;50.042;8.968;2022-12-29T02:09:17;13.00;92.40
30999;DHT22;20549;50.042;8.968;2022-12-29T02:11:44;13.00;92.60
30999;DHT22;20549;50.042;8.968;2022-12-29T02:14:11;13.10;92.70
30999;DHT22;20549;50.042;8.968;2022-12-29T02:20:08;13.10;93.20
30999;DHT22;20549;50.042;8.968;2022-12-29T02:22:22;13.10;93.20
30999;DHT22;20549;50.042;8.968;2022-12-29T02:30:37;13.20;93.40
30999;DHT22;20549;50.042;8.968;2022-12-29T02:35:59;13.20;93.40
30999;DHT22;20549;50.042;8.968;2022-12-29T02:41:04;13.30;93.50
30999;DHT22;20549;50.042;8.968;2022-12-29T02:44:12;13.30;93.70
30999;DHT22;20549;50.042;8.968;2022-12-29T02:45:55;13.30;93.40
30999;DHT22;20549;50.042;8.968;2022-12-29T02:48:23;13.30;93.70
30999;DHT22;20549;50.042;8.968;2022-12-29T02:51:01;13.40;93.70
30999;DHT22;20549;50.042;8.968;2022-12-29T02:53:25;13.40;93.70
30999;DHT22;20549;50.042;8.968;2022-12-29T02:56:10;13.50;93.80
30999;DHT22;20549;50.042;8.968;2022-12-29T02:58:37;13.50;93.80
30999;DHT22;20549;50.042;8.968;2022-12-29T03:09:17;13.60;93.30
30999;DHT22;20549;50.042;8.968;2022-12-29T03:12:00;13.70;93.30
30999;DHT22;20549;50.042;8.968;2022-12-29T03:17:40;13.70;93.10
30999;DHT22;20549;50.042;8.968;2022-12-29T03:20:06;13.70;93.00
30999;DHT22;20549;50.042;8.968;2022-12-29T03:22:31;13.70;93.00
30999;DHT22;20549;50.042;8.968;2022-12-29T03:25:05;13.80;93.00
30999;DHT22;20549;50.042;8.968;2022-12-29T03:27:38;13.80;93.10
30999;DHT22;20549;50.042;8.968;2022-12-29T03:30:00;13.90;93.30
30999;DHT22;20549;50.042;8.968;2022-12-29T03:32:29;13.90;92.90
30999;DHT22;20549;50.042;8.968;2022-12-29T03:34:52;13.90;92.80
30999;DHT22;20549;50.042;8.968;2022-12-29T03:37:21;14.00;92.70
30999;DHT22;20549;50.042;8.968;2022-12-29T03:39:46;14.00;92.60
30999;DHT22;20549;50.042;8.968;2022-12-29T03:42:17;14.00;92.50
30999;DHT22;20549;50.042;8.968;2022-12-29T03:44:42;14.10;92.40
30999;DHT22;20549;50.042;8.968;2022-12-29T03:47:09;14.10;92.30
30999;DHT22;20549;50.042;8.968;2022-12-29T03:49:35;14.10;92.20
30999;DHT22;20549;50.042;8.968;2022-12-29T03:52:01;14.20;92.10
30999;DHT22;20549;50.042;8.968;2022-12-29T03:54:29;14.20;92.00
30999;DHT22;20549;50.042;8.968;2022-12-29T03:56:54;14.20;91.80
30999;DHT22;20549;50.042;8.968;2022-12-29T03:59:21;14.20;91.70
30999;DHT22;20549;50.042;8.968;2022-12-29T04:01:48;14.20;91.60
30999;DHT22;20549;50.042;8.968;2022-12-29T04:04:14;14.20;91.60
30999;DHT22;20549;50.042;8.968;2022-12-29T04:06:41;14.20;91.50
30999;DHT22;20549;50.042;8.968;2022-12-29T04:09:09;14.20;91.50
30999;DHT22;20549;50.042;8.968;2022-12-29T04:11:34;14.20;91.50
30999;DHT22;20549;50.042;8.968;2022-12-29T04:14:01;14.20;91.40
30999;DHT22;20549;50.042;8.968;2022-12-29T04:16:27;14.20;91.30
30999;DHT22;20549;50.042;8.968;2022-12-29T04:18:54;14.20;91.30
30999;DHT22;20549;50.042;8.968;2022-12-29T04:21:20;14.20;91.20
30999;DHT22;20549;50.042;8.968;2022-12-29T04:23:47;14.20;91.10
30999;DHT22;20549;50.042;8.968;2022-12-29T04:26:14;14.20;91.00
30999;DHT22;20549;50.042;8.968;2022-12-29T04:28:40;14.20;90.90
30999;DHT22;20549;50.042;8.968;2022-12-29T04:31:07;14.20;90.90
30999;DHT22;20549;50.042;8.968;2022-12-29T04:33:33;14.20;90.80
30999;DHT22;20549;50.042;8.968;2022-12-29T04:36:00;14.20;90.70
30999;DHT22;20549;50.042;8.968;2022-12-29T04:38:27;14.20;90.70
30999;DHT22;20549;50.042;8.968;2022-12-29T04:40:53;14.30;90.70
30999;DHT22;20549;50.042;8.968;2022-12-29T04:43:20;14.30;90.60
30999;DHT22;20549;50.042;8.968;2022-12-29T04:45:46;14.30;90.50
30999;DHT22;20549;50.042;8.968;2022-12-29T04:48:13;14.30;90.50
30999;DHT22;20549;50.042;8.968;2022-12-29T04:50:40;14.30;90.40
30999;DHT22;20549;50.042;8.968;2022-12-29T04:53:06;14.30;90.40
30999;DHT22;20549;50.042;8.968;2022-12-29T04:55:33;14.30;90.20
30999;DHT22;20549;50.042;8.968;2022-12-29T04:57:59;14.30;90.20
30999;DHT22;20549;50.042;8.968;2022-12-29T05:00:26;14.40;90.20
30999;DHT22;20549;50.042;8.968;2022-12-29T05:02:52;14.40;90.00
30999;DHT22;20549;50.042;8.968;2022-12-29T05:05:19;14.40;89.90
30999;DHT22;20549;50.042;8.968;2022-12-29T05:07:46;14.40;89.80
30999;DHT22;20549;50.042;8.968;2022-12-29T05:10:12;14.40;89.60
30999;DHT22;20549;50.042;8.968;2022-12-29T05:12:39;14.40;89.60
30999;DHT22;20549;50.042;8.968;2022-12-29T05:15:06;14.40;89.60
30999;DHT22;20549;50.042;8.968;2022-12-29T05:17:32;14.50;89.30
30999;DHT22;20549;50.042;8.968;2022-12-29T05:19:59;14.50;88.80
30999;DHT22;20549;50.042;8.968;2022-12-29T05:22:25;14.50;88.90
30999;DHT22;20549;50.042;8.968;2022-12-29T05:24:52;14.50;88.90
30999;DHT22;20549;50.042;8.968;2022-12-29T05:27:18;14.50;88.70
30999;DHT22;20549;50.042;8.968;2022-12-29T05:29:45;14.60;88.30
30999;DHT22;20549;50.042;8.968;2022-12-29T05:32:12;14.60;88.30
30999;DHT22;20549;50.042;8.968;2022-12-29T05:34:38;14.60;88.40
30999;DHT22;20549;50.042;8.968;2022-12-29T05:37:05;14.60;88.60
30999;DHT22;20549;50.042;8.968;2022-12-29T05:39:31;14.70;88.70
30999;DHT22;20549;50.042;8.968;2022-12-29T05:41:58;14.60;88.30
30999;DHT22;20549;50.042;8.968;2022-12-29T05:44:25;14.60;88.10
30999;DHT22;20549;50.042;8.968;2022-12-29T05:46:51;14.60;87.90
30999;DHT22;20549;50.042;8.968;2022-12-29T05:49:18;14.60;87.70
30999;DHT22;20549;50.042;8.968;2022-12-29T05:51:44;14.60;87.60
30999;DHT22;20549;50.042;8.968;2022-12-29T05:54:11;14.70;87.10
30999;DHT22;20549;50.042;8.968;2022-12-29T05:56:38;14.70;87.20
30999;DHT22;20549;50.042;8.968;2022-12-29T05:59:04;14.70;86.70
30999;DHT22;20549;50.042;8.968;2022-12-29T06:01:31;14.70;86.40
30999;DHT22;20549;50.042;8.968;2022-12-29T06:03:57;14.70;86.50
30999;DHT22;20549;50.042;8.968;2022-12-29T06:06:24;14.70;86.40
30999;DHT22;20549;50.042;8.968;2022-12-29T06:08:51;14.80;86.30
30999;DHT22;20549;50.042;8.968;2022-12-29T06:11:17;14.80;85.70
30999;DHT22;20549;50.042;8.968;2022-12-29T06:13:44;14.80;85.80
30999;DHT22;20549;50.042;8.968;2022-12-29T06:16:10;14.80;85.60
30999;DHT22;20549;50.042;8.968;2022-12-29T06:18:37;14.80;85.30
30999;DHT22;20549;50.042;8.968;2022-12-29T06:21:04;14.90;85.30
30999;DHT22;20549;50.042;8.968;2022-12-29T06:23:30;14.90;85.00
30999;DHT22;20549;50.042;8.968;2022-12-29T06:25:57;14.90;84.80
30999;DHT22;20549;50.042;8.968;2022-12-29T06:28:23;14.90;85.00
30999;DHT22;20549;50.042;8.968;2022-12-29T06:30:50;14.90;84.30
30999;DHT22;20549;50.042;8.968;2022-12-29T06:33:16;14.90;84.60
30999;DHT22;20549;50.042;8.968;2022-12-29T06:35:43;14.90;84.50
30999;DHT22;20549;50.042;8.968;2022-12-29T06:38:10;14.90;84.20
30999;DHT22;20549;50.042;8.968;2022-12-29T06:40:36;14.90;85.00
30999;DHT22;20549;50.042;8.968;2022-12-29T06:43:03;15.00;84.20
30999;DHT22;20549;50.042;8.968;2022-12-29T06:45:29;15.00;83.90
30999;DHT22;20549;50.042;8.968;2022-12-29T06:47:56;15.00;83.90
30999;DHT22;20549;50.042;8.968;2022-12-29T06:50:23;15.00;83.70
30999;DHT22;20549;50.042;8.968;2022-12-29T06:52:49;15.00;83.50
30999;DHT22;20549;50.042;8.968;2022-12-29T06:55:16;15.10;83.60
30999;DHT22;20549;50.042;8.968;2022-12-29T06:57:42;15.10;83.20
30999;DHT22;20549;50.042;8.968;2022-12-29T07:00:09;15.10;83.20
30999;DHT22;20549;50.042;8.968;2022-12-29T07:02:36;15.10;83.10
30999;DHT22;20549;50.042;8.968;2022-12-29T07:05:02;15.10;82.90
30999;DHT22;20549;50.042;8.968;2022-12-29T07:07:29;15.10;82.20
30999;DHT22;20549;50.042;8.968;2022-12-29T07:09:55;15.20;82.60
30999;DHT22;20549;50.042;8.968;2022-12-29T07:12:22;15.10;82.70
30999;DHT22;20549;50.042;8.968;2022-12-29T07:14:48;15.20;82.40
30999;DHT22;20549;50.042;8.968;2022-12-29T07:17:15;15.20;82.10
30999;DHT22;20549;50.042;8.968;2022-12-29T07:19:42;15.20;81.60
30999;DHT22;20549;50.042;8.968;2022-12-29T07:22:09;15.20;82.00
30999;DHT22;20549;50.042;8.968;2022-12-29T07:24:35;15.20;81.90
30999;DHT22;20549;50.042;8.968;2022-12-29T07:27:01;15.20;81.90
30999;DHT22;20549;50.042;8.968;2022-12-29T07:29:28;15.20;81.70
30999;DHT22;20549;50.042;8.968;2022-12-29T07:31:55;15.20;81.70
30999;DHT22;20549;50.042;8.968;2022-12-29T07:34:21;15.30;81.90
30999;DHT22;20549;50.042;8.968;2022-12-29T07:36:48;15.20;81.50
30999;DHT22;20549;50.042;8.968;2022-12-29T07:39:14;15.20;81.90
30999;DHT22;20549;50.042;8.968;2022-12-29T07:41:41;15.20;82.30
30999;DHT22;20549;50.042;8.968;2022-12-29T07:44:08;15.20;82.50
30999;DHT22;20549;50.042;8.968;2022-12-29T07:46:34;15.20;82.80
30999;DHT22;20549;50.042;8.968;2022-12-29T07:49:01;15.20;82.90
30999;DHT22;20549;50.042;8.968;2022-12-29T07:51:27;15.10;82.80
30999;DHT22;20549;50.042;8.968;2022-12-29T07:53:54;15.10;83.30
30999;DHT22;20549;50.042;8.968;2022-12-29T07:56:20;15.00;83.50
30999;DHT22;20549;50.042;8.968;2022-12-29T07:58:47;15.00;83.40
30999;DHT22;20549;50.042;8.968;2022-12-29T08:01:14;15.00;83.70
30999;DHT22;20549;50.042;8.968;2022-12-29T08:03:40;14.90;83.90
30999;DHT22;20549;50.042;8.968;2022-12-29T08:06:09;14.90;84.00
30999;DHT22;20549;50.042;8.968;2022-12-29T08:08:33;14.90;84.00
30999;DHT22;20549;50.042;8.968;2022-12-29T08:11:00;14.90;84.00
30999;DHT22;20549;50.042;8.968;2022-12-29T08:13:27;14.90;84.00
30999;DHT22;20549;50.042;8.968;2022-12-29T08:15:53;14.80;84.20
30999;DHT22;20549;50.042;8.968;2022-12-29T08:18:20;14.90;84.40
30999;DHT22;20549;50.042;8.968;2022-12-29T08:20:46;14.90;84.50
30999;DHT22;20549;50.042;8.968;2022-12-29T08:23:13;14.90;84.50
30999;DHT22;20549;50.042;8.968;2022-12-29T08:25:40;14.90;84.50
30999;DHT22;20549;50.042;8.968;2022-12-29T08:28:06;14.90;84.40
30999;DHT22;20549;50.042;8.968;2022-12-29T08:30:33;14.90;84.50
30999;DHT22;20549;50.042;8.968;2022-12-29T08:32:59;14.90;84.20
30999;DHT22;20549;50.042;8.968;2022-12-29T08:35:26;14.90;84.40
30999;DHT22;20549;50.042;8.968;2022-12-29T08:37:53;14.90;84.70
30999;DHT22;20549;50.042;8.968;2022-12-29T08:40:19;14.90;84.60
30999;DHT22;20549;50.042;8.968;2022-12-29T08:42:46;14.90;84.60
30999;DHT22;20549;50.042;8.968;2022-12-29T08:45:12;14.90;84.50
30999;DHT22;20549;50.042;8.968;2022-12-29T08:47:39;14.90;84.50
30999;DHT22;20549;50.042;8.968;2022-12-29T08:50:06;14.90;84.30
30999;DHT22;20549;50.042;8.968;2022-12-29T08:52:32;14.90;84.20
30999;DHT22;20549;50.042;8.968;2022-12-29T08:54:59;14.90;83.90
30999;DHT22;20549;50.042;8.968;2022-12-29T08:57:25;14.90;83.70
30999;DHT22;20549;50.042;8.968;2022-12-29T08:59:52;14.90;83.70
30999;DHT22;20549;50.042;8.968;2022-12-29T09:02:18;15.00;83.70
30999;DHT22;20549;50.042;8.968;2022-12-29T09:04:45;15.00;83.60
30999;DHT22;20549;50.042;8.968;2022-12-29T09:07:12;15.00;83.80
30999;DHT22;20549;50.042;8.968;2022-12-29T09:09:38;15.00;83.80
30999;DHT22;20549;50.042;8.968;2022-12-29T09:12:05;15.00;83.30
30999;DHT22;20549;50.042;8.968;2022-12-29T09:14:31;15.10;83.50
30999;DHT22;20549;50.042;8.968;2022-12-29T09:16:58;15.10;83.10
30999;DHT22;20549;50.042;8.968;2022-12-29T09:19:43;15.10;82.90
30999;DHT22;20549;50.042;8.968;2022-12-29T09:22:09;15.10;82.90
30999;DHT22;20549;50.042;8.968;2022-12-29T09:24:36;15.20;82.90
30999;DHT22;20549;50.042;8.968;2022-12-29T09:27:03;15.20;82.30
30999;DHT22;20549;50.042;8.968;2022-12-29T09:29:29;15.20;81.80
30999;DHT22;20549;50.042;8.968;2022-12-29T09:31:56;15.30;82.10
30999;DHT22;20549;50.042;8.968;2022-12-29T09:34:22;15.30;82.10
30999;DHT22;20549;50.042;8.968;2022-12-29T09:36:49;15.40;82.10
30999;DHT22;20549;50.042;8.968;2022-12-29T09:39:15;15.40;81.80
30999;DHT22;20549;50.042;8.968;2022-12-29T09:44:31;15.50;81.70
30999;DHT22;20549;50.042;8.968;2022-12-29T09:46:53;15.50;81.70
30999;DHT22;20549;50.042;8.968;2022-12-29T09:49:24;15.50;81.40
30999;DHT22;20549;50.042;8.968;2022-12-29T09:51:51;15.50;81.50
30999;DHT22;20549;50.042;8.968;2022-12-29T09:54:31;15.50;81.70
30999;DHT22;20549;50.042;8.968;2022-12-29T09:56:54;15.50;81.70
30999;DHT22;20549;50.042;8.968;2022-12-29T09:59:21;15.50;81.70
30999;DHT22;20549;50.042;8.968;2022-12-29T10:02:12;15.50;81.40
30999;DHT22;20549;50.042;8.968;2022-12-29T10:04:16;15.50;81.10
30999;DHT22;20549;50.042;8.968;2022-12-29T10:06:54;15.50;81.10
30999;DHT22;20549;50.042;8.968;2022-12-29T10:09:34;15.50;80.70
30999;DHT22;20549;50.042;8.968;2022-12-29T10:12:46;15.40;80.70
30999;DHT22;20549;50.042;8.968;2022-12-29T10:18:03;15.50;81.50
30999;DHT22;20549;50.042;8.968;2022-12-29T10:20:53;15.50;81.10
30999;DHT22;20549;50.042;8.968;2022-12-29T10:23:20;15.50;81.50
30999;DHT22;20549;50.042;8.968;2022-12-29T10:25:43;15.50;81.70
30999;DHT22;20549;50.042;8.968;2022-12-29T10:28:19;15.40;81.90
30999;DHT22;20549;50.042;8.968;2022-12-29T10:30:45;15.50;82.50
30999;DHT22;20549;50.042;8.968;2022-12-29T10:33:12;15.40;82.90
30999;DHT22;20549;50.042;8.968;2022-12-29T10:35:38;15.40;83.40
30999;DHT22;20549;50.042;8.968;2022-12-29T10:38:30;15.30;83.70
30999;DHT22;20549;50.042;8.968;2022-12-29T10:41:15;15.30;84.00
30999;DHT22;20549;50.042;8.968;2022-12-29T10:43:46;15.20;84.10
30999;DHT22;20549;50.042;8.968;2022-12-29T10:46:13;15.00;84.30
30999;DHT22;20549;50.042;8.968;2022-12-29T10:48:39;14.80;84.60
30999;DHT22;20549;50.042;8.968;2022-12-29T10:51:06;14.70;85.00
30999;DHT22;20549;50.042;8.968;2022-12-29T10:53:49;14.60;85.30
30999;DHT22;20549;50.042;8.968;2022-12-29T10:58:52;14.30;86.10
30999;DHT22;20549;50.042;8.968;2022-12-29T11:01:19;14.20;86.80
30999;DHT22;20549;50.042;8.968;2022-12-29T11:03:50;14.10;87.10
30999;DHT22;20549;50.042;8.968;2022-12-29T11:06:25;14.00;87.50
30999;DHT22;20549;50.042;8.968;2022-12-29T11:08:57;13.90;88.20
30999;DHT22;20549;50.042;8.968;2022-12-29T11:11:24;13.80;89.40
30999;DHT22;20549;50.042;8.968;2022-12-29T11:13:50;13.80;90.10
30999;DHT22;20549;50.042;8.968;2022-12-29T11:16:26;13.80;90.50
30999;DHT22;20549;50.042;8.968;2022-12-29T11:18:43;13.70;90.80
30999;DHT22;20549;50.042;8.968;2022-12-29T11:21:31;13.80;91.20
30999;DHT22;20549;50.042;8.968;2022-12-29T11:23:58;13.80;91.50
30999;DHT22;20549;50.042;8.968;2022-12-29T11:26:24;13.80;91.50
30999;DHT22;20549;50.042;8.968;2022-12-29T11:29:11;13.90;91.80
30999;DHT22;20549;50.042;8.968;2022-12-29T11:31:39;13.90;92.00
30999;DHT22;20549;50.042;8.968;2022-12-29T11:33:59;14.00;91.90
30999;DHT22;20549;50.042;8.968;2022-12-29T11:36:25;14.10;92.10
30999;DHT22;20549;50.042;8.968;2022-12-29T11:38:52;14.10;92.10
30999;DHT22;20549;50.042;8.968;2022-12-29T11:41:22;14.20;92.10
30999;DHT22;20549;50.042;8.968;2022-12-29T11:43:45;14.20;92.10
30999;DHT22;20549;50.042;8.968;2022-12-29T11:46:16;14.20;91.90
30999;DHT22;20549;50.042;8.968;2022-12-29T11:48:41;14.30;92.00
30999;DHT22;20549;50.042;8.968;2022-12-29T11:51:08;14.30;92.10
30999;DHT22;20549;50.042;8.968;2022-12-29T11:53:44;14.40;92.30
30999;DHT22;20549;50.042;8.968;2022-12-29T11:56:10;14.40;92.30
30999;DHT22;20549;50.042;8.968;2022-12-29T11:58:37;14.50;92.30
30999;DHT22;20549;50.042;8.968;2022-12-29T12:01:20;14.60;92.30
30999;DHT22;20549;50.042;8.968;2022-12-29T12:03:52;14.60;92.20
30999;DHT22;20549;50.042;8.968;2022-12-29T12:06:16;14.70;92.20
30999;DHT22;20549;50.042;8.968;2022-12-29T12:08:57;14.80;92.10
30999;DHT22;20549;50.042;8.968;2022-12-29T12:11:34;14.80;92.10
30999;DHT22;20549;50.042;8.968;2022-12-29T12:14:46;14.90;91.90
30999;DHT22;20549;50.042;8.968;2022-12-29T12:16:40;14.90;91.70
30999;DHT22;20549;50.042;8.968;2022-12-29T12:19:19;15.00;91.50
30999;DHT22;20549;50.042;8.968;2022-12-29T12:21:42;15.00;91.40
30999;DHT22;20549;50.042;8.968;2022-12-29T12:27:10;15.10;91.20
30999;DHT22;20549;50.042;8.968;2022-12-29T12:29:59;15.10;90.90
30999;DHT22;20549;50.042;8.968;2022-12-29T12:35:13;15.20;90.40
30999;DHT22;20549;50.042;8.968;2022-12-29T12:40:42;15.20;89.90
30999;DHT22;20549;50.042;8.968;2022-12-29T12:45:49;15.20;89.30
30999;DHT22;20549;50.042;8.968;2022-12-29T12:50:53;15.20;89.00
30999;DHT22;20549;50.042;8.968;2022-12-29T12:53:33;15.20;88.90
30999;DHT22;20549;50.042;8.968;2022-12-29T12:58:52;15.20;89.10
30999;DHT22;20549;50.042;8.968;2022-12-29T13:01:40;15.20;89.20
30999;DHT22;20549;50.042;8.968;2022-12-29T13:04:30;15.20;89.30
30999;DHT22;20549;50.042;8.968;2022-12-29T13:10:28;15.30;89.30
30999;DHT22;20549;50.042;8.968;2022-12-29T13:13:27;15.30;89.00
30999;DHT22;20549;50.042;8.968;2022-12-29T13:18:59;15.40;89.00
30999;DHT22;20549;50.042;8.968;2022-12-29T13:21:25;15.40;88.40
30999;DHT22;20549;50.042;8.968;2022-12-29T13:23:39;15.40;88.20
30999;DHT22;20549;50.042;8.968;2022-12-29T13:26:18;15.40;88.00
30999;DHT22;20549;50.042;8.968;2022-12-29T13:29:03;15.40;87.80
30999;DHT22;20549;50.042;8.968;2022-12-29T13:31:33;15.40;87.60
30999;DHT22;20549;50.042;8.968;2022-12-29T13:34:05;15.50;87.30
30999;DHT22;20549;50.042;8.968;2022-12-29T13:36:36;15.40;86.60
30999;DHT22;20549;50.042;8.968;2022-12-29T13:39:11;15.40;86.20
30999;DHT22;20549;50.042;8.968;2022-12-29T13:41:38;15.40;85.90
30999;DHT22;20549;50.042;8.968;2022-12-29T13:44:03;15.40;85.60
30999;DHT22;20549;50.042;8.968;2022-12-29T13:46:37;15.40;85.60
30999;DHT22;20549;50.042;8.968;2022-12-29T13:48:59;15.40;85.60
30999;DHT22;20549;50.042;8.968;2022-12-29T13:51:25;15.40;85.30
30999;DHT22;20549;50.042;8.968;2022-12-29T13:54:12;15.40;85.00
30999;DHT22;20549;50.042;8.968;2022-12-29T13:56:54;15.40;84.70
30999;DHT22;20549;50.042;8.968;2022-12-29T13:59:33;15.30;84.50
30999;DHT22;20549;50.042;8.968;2022-12-29T14:01:52;15.30;84.20
30999;DHT22;20549;50.042;8.968;2022-12-29T14:04:23;15.30;83.90
30999;DHT22;20549;50.042;8.968;2022-12-29T14:07:12;15.20;84.00
30999;DHT22;20549;50.042;8.968;2022-12-29T14:14:47;15.20;83.80
30999;DHT22;20549;50.042;8.968;2022-12-29T14:17:16;15.20;83.50
30999;DHT22;20549;50.042;8.968;2022-12-29T14:19:41;15.20;83.40
30999;DHT22;20549;50.042;8.968;2022-12-29T14:22:07;15.20;83.40
30999;DHT22;20549;50.042;8.968;2022-12-29T14:34:52;15.20;83.10
30999;DHT22;20549;50.042;8.968;2022-12-29T14:37:34;15.10;82.80
30999;DHT22;20549;50.042;8.968;2022-12-29T14:40:17;15.10;82.90
30999;DHT22;20549;50.042;8.968;2022-12-29T14:42:42;15.10;82.40
30999;DHT22;20549;50.042;8.968;2022-12-29T14:47:45;15.10;82.60
30999;DHT22;20549;50.042;8.968;2022-12-29T14:52:56;15.10;82.10
30999;DHT22;20549;50.042;8.968;2022-12-29T14:58:04;15.00;81.80
30999;DHT22;20549;50.042;8.968;2022-12-29T15:00:34;15.00;81.20
30999;DHT22;20549;50.042;8.968;2022-12-29T15:03:06;15.00;81.20
30999;DHT22;20549;50.042;8.968;2022-12-29T15:05:37;15.00;81.00
30999;DHT22;20549;50.042;8.968;2022-12-29T15:08:02;14.90;80.60
30999;DHT22;20549;50.042;8.968;2022-12-29T15:10:32;14.90;80.60
30999;DHT22;20549;50.042;8.968;2022-12-29T15:12:55;14.80;80.50
30999;DHT22;20549;50.042;8.968;2022-12-29T15:15:25;14.80;80.50
30999;DHT22;20549;50.042;8.968;2022-12-29T15:17:51;14.70;80.50
30999;DHT22;20549;50.042;8.968;2022-12-29T15:25:34;14.60;80.50
30999;DHT22;20549;50.042;8.968;2022-12-29T15:28:02;14.60;80.50
30999;DHT22;20549;50.042;8.968;2022-12-29T15:30:28;14.50;80.20
30999;DHT22;20549;50.042;8.968;2022-12-29T15:32:54;14.50;80.20
30999;DHT22;20549;50.042;8.968;2022-12-29T15:35:34;14.40;80.00
30999;DHT22;20549;50.042;8.968;2022-12-29T15:38:00;14.30;79.80
30999;DHT22;20549;50.042;8.968;2022-12-29T15:40:30;14.30;79.90
30999;DHT22;20549;50.042;8.968;2022-12-29T15:45:29;14.10;80.00
30999;DHT22;20549;50.042;8.968;2022-12-29T15:47:54;14.00;80.00
30999;DHT22;20549;50.042;8.968;2022-12-29T15:50:27;13.90;80.10
30999;DHT22;20549;50.042;8.968;2022-12-29T15:52:53;13.90;80.30
30999;DHT22;20549;50.042;8.968;2022-12-29T15:55:32;13.80;80.30
30999;DHT22;20549;50.042;8.968;2022-12-29T15:57:59;13.70;80.50
30999;DHT22;20549;50.042;8.968;2022-12-29T16:00:26;13.60;80.70
30999;DHT22;20549;50.042;8.968;2022-12-29T16:02:51;13.50;80.70
30999;DHT22;20549;50.042;8.968;2022-12-29T16:05:18;13.50;81.00
30999;DHT22;20549;50.042;8.968;2022-12-29T16:07:57;13.40;81.00
30999;DHT22;20549;50.042;8.968;2022-12-29T16:10:31;13.30;81.20
30999;DHT22;20549;50.042;8.968;2022-12-29T16:13:01;13.20;81.30
30999;DHT22;20549;50.042;8.968;2022-12-29T16:15:22;13.20;81.60
30999;DHT22;20549;50.042;8.968;2022-12-29T16:17:50;13.10;81.80
30999;DHT22;20549;50.042;8.968;2022-12-29T16:20:37;13.00;82.00
30999;DHT22;20549;50.042;8.968;2022-12-29T16:22:57;13.00;82.30
30999;DHT22;20549;50.042;8.968;2022-12-29T16:27:50;12.90;82.70
30999;DHT22;20549;50.042;8.968;2022-12-29T16:32:46;12.80;83.10
30999;DHT22;20549;50.042;8.968;2022-12-29T16:35:19;12.80;83.20
30999;DHT22;20549;50.042;8.968;2022-12-29T16:37:45;12.80;83.40
30999;DHT22;20549;50.042;8.968;2022-12-29T16:40:23;12.70;83.50
30999;DHT22;20549;50.042;8.968;2022-12-29T16:42:46;12.60;83.70
30999;DHT22;20549;50.042;8.968;2022-12-29T16:47:46;12.60;84.20
30999;DHT22;20549;50.042;8.968;2022-12-29T16:50:13;12.50;84.30
30999;DHT22;20549;50.042;8.968;2022-12-29T16:52:39;12.50;84.50
30999;DHT22;20549;50.042;8.968;2022-12-29T16:55:06;12.40;84.60
30999;DHT22;20549;50.042;8.968;2022-12-29T16:57:33;12.40;84.80
30999;DHT22;20549;50.042;8.968;2022-12-29T17:00:07;12.40;85.70
30999;DHT22;20549;50.042;8.968;2022-12-29T17:02:31;12.40;85.00
30999;DHT22;20549;50.042;8.968;2022-12-29T17:04:58;12.30;85.00
30999;DHT22;20549;50.042;8.968;2022-12-29T17:07:25;12.30;85.20
30999;DHT22;20549;50.042;8.968;2022-12-29T17:09:51;12.30;85.40
30999;DHT22;20549;50.042;8.968;2022-12-29T17:12:18;12.20;85.50
30999;DHT22;20549;50.042;8.968;2022-12-29T17:14:47;12.20;85.70
30999;DHT22;20549;50.042;8.968;2022-12-29T17:19:47;12.10;86.00
30999;DHT22;20549;50.042;8.968;2022-12-29T17:22:11;12.10;86.20
30999;DHT22;20549;50.042;8.968;2022-12-29T17:24:36;12.10;86.30